sensor_id;sensor_type;location;lat;lon;timestamp;P1;durP1;ratioP1;P2;durP2;ratioP2
28623;SDS011;15813;46.932;19.658;2023-06-10T00:01:57;13.65;;;8.00;;
28623;SDS011;15813;46.932;19.658;2023-06-10T00:04:23;14.18;;;7.55;;
28623;SDS011;15813;46.932;19.658;2023-06-10T00:06:48;11.73;;;8.20;;
28623;SDS011;15813;46.932;19.658;2023-06-10T00:09:15;10.85;;;8.10;;
28623;SDS011;15813;46.932;19.658;2023-06-10T00:11:41;9.00;;;7.40;;
28623;SDS011;15813;46.932;19.658;2023-06-10T00:14:07;14.18;;;7.50;;
28623;SDS011;15813;46.932;19.658;2023-06-10T00:16:32;13.68;;;7.55;;
28623;SDS011;15813;46.932;19.658;2023-06-10T00:19:01;17.15;;;7.43;;
28623;SDS011;15813;46.932;19.658;2023-06-10T00:21:28;9.15;;;6.90;;
28623;SDS011;15813;46.932;19.658;2023-06-10T00:23:53;9.68;;;6.85;;
28623;SDS011;15813;46.932;19.658;2023-06-10T00:26:20;15.30;;;7.50;;
28623;SDS011;15813;46.932;19.658;2023-06-10T00:28:45;11.15;;;7.90;;
28623;SDS011;15813;46.932;19.658;2023-06-10T00:31:10;15.07;;;8.75;;
28623;SDS011;15813;46.932;19.658;2023-06-10T00:33:36;13.13;;;8.63;;
28623;SDS011;15813;46.932;19.658;2023-06-10T00:36:01;13.57;;;7.95;;
28623;SDS011;15813;46.932;19.658;2023-06-10T00:38:26;19.27;;;9.32;;
28623;SDS011;15813;46.932;19.658;2023-06-10T00:40:51;15.40;;;8.65;;
28623;SDS011;15813;46.932;19.658;2023-06-10T00:43:17;17.20;;;9.27;;
28623;SDS011;15813;46.932;19.658;2023-06-10T00:45:42;11.40;;;7.97;;
28623;SDS011;15813;46.932;19.658;2023-06-10T00:48:07;13.27;;;8.60;;
28623;SDS011;15813;46.932;19.658;2023-06-10T00:50:33;13.43;;;8.98;;
28623;SDS011;15813;46.932;19.658;2023-06-10T00:52:59;14.65;;;8.80;;
28623;SDS011;15813;46.932;19.658;2023-06-10T00:55:25;12.95;;;8.80;;
28623;SDS011;15813;46.932;19.658;2023-06-10T00:57:52;15.25;;;7.90;;
28623;SDS011;15813;46.932;19.658;2023-06-10T01:00:18;19.15;;;8.60;;
28623;SDS011;15813;46.932;19.658;2023-06-10T01:02:44;16.75;;;8.77;;
28623;SDS011;15813;46.932;19.658;2023-06-10T01:05:09;15.57;;;8.88;;
28623;SDS011;15813;46.932;19.658;2023-06-10T01:07:38;19.38;;;9.20;;
28623;SDS011;15813;46.932;19.658;2023-06-10T01:10:06;18.50;;;8.77;;
28623;SDS011;15813;46.932;19.658;2023-06-10T01:12:47;17.35;;;9.40;;
28623;SDS011;15813;46.932;19.658;2023-06-10T01:15:15;17.20;;;8.55;;
28623;SDS011;15813;46.932;19.658;2023-06-10T01:20:26;14.90;;;8.18;;
28623;SDS011;15813;46.932;19.658;2023-06-10T01:22:53;22.95;;;9.05;;
28623;SDS011;15813;46.932;19.658;2023-06-10T01:25:20;22.23;;;9.40;;
28623;SDS011;15813;46.932;19.658;2023-06-10T01:27:52;14.75;;;9.70;;
28623;SDS011;15813;46.932;19.658;2023-06-10T01:30:18;20.17;;;10.18;;
28623;SDS011;15813;46.932;19.658;2023-06-10T01:32:49;15.35;;;10.60;;
28623;SDS011;15813;46.932;19.658;2023-06-10T01:35:15;18.35;;;9.60;;
28623;SDS011;15813;46.932;19.658;2023-06-10T01:37:40;19.27;;;9.93;;
28623;SDS011;15813;46.932;19.658;2023-06-10T01:40:08;13.25;;;8.48;;
28623;SDS011;15813;46.932;19.658;2023-06-10T01:42:34;31.00;;;9.82;;
28623;SDS011;15813;46.932;19.658;2023-06-10T01:45:00;29.98;;;9.35;;
28623;SDS011;15813;46.932;19.658;2023-06-10T01:47:25;24.88;;;9.68;;
28623;SDS011;15813;46.932;19.658;2023-06-10T01:49:50;28.85;;;9.90;;
28623;SDS011;15813;46.932;19.658;2023-06-10T01:52:16;32.15;;;10.75;;
28623;SDS011;15813;46.932;19.658;2023-06-10T01:54:41;28.92;;;10.82;;
28623;SDS011;15813;46.932;19.658;2023-06-10T01:57:06;31.83;;;10.85;;
28623;SDS011;15813;46.932;19.658;2023-06-10T01:59:32;27.10;;;10.60;;
28623;SDS011;15813;46.932;19.658;2023-06-10T02:01:57;30.02;;;10.93;;
28623;SDS011;15813;46.932;19.658;2023-06-10T02:04:22;29.52;;;11.95;;
28623;SDS011;15813;46.932;19.658;2023-06-10T02:06:48;30.33;;;10.52;;
28623;SDS011;15813;46.932;19.658;2023-06-10T02:09:13;25.23;;;10.27;;
28623;SDS011;15813;46.932;19.658;2023-06-10T02:11:38;25.20;;;10.10;;
28623;SDS011;15813;46.932;19.658;2023-06-10T02:14:04;17.10;;;9.15;;
28623;SDS011;15813;46.932;19.658;2023-06-10T02:16:29;25.98;;;9.82;;
28623;SDS011;15813;46.932;19.658;2023-06-10T02:18:55;19.90;;;10.23;;
28623;SDS011;15813;46.932;19.658;2023-06-10T02:21:21;20.17;;;10.98;;
28623;SDS011;15813;46.932;19.658;2023-06-10T02:23:46;20.88;;;9.30;;
28623;SDS011;15813;46.932;19.658;2023-06-10T02:26:12;14.30;;;9.65;;
28623;SDS011;15813;46.932;19.658;2023-06-10T02:28:37;18.77;;;8.68;;
28623;SDS011;15813;46.932;19.658;2023-06-10T02:31:02;18.23;;;7.97;;
28623;SDS011;15813;46.932;19.658;2023-06-10T02:33:27;19.98;;;7.85;;
28623;SDS011;15813;46.932;19.658;2023-06-10T02:35:53;16.50;;;7.25;;
28623;SDS011;15813;46.932;19.658;2023-06-10T02:38:18;18.58;;;7.35;;
28623;SDS011;15813;46.932;19.658;2023-06-10T02:40:44;21.38;;;7.32;;
28623;SDS011;15813;46.932;19.658;2023-06-10T02:43:09;20.05;;;7.45;;
28623;SDS011;15813;46.932;19.658;2023-06-10T02:45:35;14.43;;;7.25;;
28623;SDS011;15813;46.932;19.658;2023-06-10T02:48:00;14.88;;;6.65;;
28623;SDS011;15813;46.932;19.658;2023-06-10T02:50:25;10.73;;;6.10;;
28623;SDS011;15813;46.932;19.658;2023-06-10T02:52:51;11.35;;;6.28;;
28623;SDS011;15813;46.932;19.658;2023-06-10T02:55:16;10.77;;;5.97;;
28623;SDS011;15813;46.932;19.658;2023-06-10T02:57:41;14.83;;;5.83;;
28623;SDS011;15813;46.932;19.658;2023-06-10T03:00:06;10.32;;;5.90;;
28623;SDS011;15813;46.932;19.658;2023-06-10T03:02:35;13.68;;;6.78;;
28623;SDS011;15813;46.932;19.658;2023-06-10T03:05:03;17.02;;;5.88;;
28623;SDS011;15813;46.932;19.658;2023-06-10T03:07:29;8.38;;;5.97;;
28623;SDS011;15813;46.932;19.658;2023-06-10T03:09:55;14.50;;;6.25;;
28623;SDS011;15813;46.932;19.658;2023-06-10T03:12:20;10.23;;;6.27;;
28623;SDS011;15813;46.932;19.658;2023-06-10T03:14:45;23.10;;;6.45;;
28623;SDS011;15813;46.932;19.658;2023-06-10T03:17:11;13.77;;;6.03;;
28623;SDS011;15813;46.932;19.658;2023-06-10T03:19:36;11.27;;;5.90;;
28623;SDS011;15813;46.932;19.658;2023-06-10T03:24:34;9.65;;;5.38;;
28623;SDS011;15813;46.932;19.658;2023-06-10T03:27:01;11.18;;;6.40;;
28623;SDS011;15813;46.932;19.658;2023-06-10T03:29:27;13.05;;;6.47;;
28623;SDS011;15813;46.932;19.658;2023-06-10T03:31:52;13.27;;;6.30;;
28623;SDS011;15813;46.932;19.658;2023-06-10T03:34:17;14.97;;;6.13;;
28623;SDS011;15813;46.932;19.658;2023-06-10T03:36:42;13.75;;;5.97;;
28623;SDS011;15813;46.932;19.658;2023-06-10T03:39:08;9.45;;;6.35;;
28623;SDS011;15813;46.932;19.658;2023-06-10T03:41:34;11.85;;;6.47;;
28623;SDS011;15813;46.932;19.658;2023-06-10T03:43:59;14.13;;;6.50;;
28623;SDS011;15813;46.932;19.658;2023-06-10T03:46:25;9.43;;;7.10;;
28623;SDS011;15813;46.932;19.658;2023-06-10T03:48:50;14.35;;;7.07;;
28623;SDS011;15813;46.932;19.658;2023-06-10T03:51:16;12.80;;;7.15;;
28623;SDS011;15813;46.932;19.658;2023-06-10T03:53:41;16.23;;;6.60;;
28623;SDS011;15813;46.932;19.658;2023-06-10T03:56:06;8.43;;;5.78;;
28623;SDS011;15813;46.932;19.658;2023-06-10T03:58:32;13.23;;;6.77;;
28623;SDS011;15813;46.932;19.658;2023-06-10T04:00:57;14.05;;;7.45;;
28623;SDS011;15813;46.932;19.658;2023-06-10T04:03:22;14.60;;;6.55;;
28623;SDS011;15813;46.932;19.658;2023-06-10T04:05:49;11.20;;;6.85;;
28623;SDS011;15813;46.932;19.658;2023-06-10T04:08:15;15.15;;;6.80;;
28623;SDS011;15813;46.932;19.658;2023-06-10T04:10:40;9.45;;;6.75;;
28623;SDS011;15813;46.932;19.658;2023-06-10T04:13:05;13.43;;;6.38;;
28623;SDS011;15813;46.932;19.658;2023-06-10T04:15:31;9.83;;;6.37;;
28623;SDS011;15813;46.932;19.658;2023-06-10T04:17:58;11.15;;;7.05;;
28623;SDS011;15813;46.932;19.658;2023-06-10T04:20:23;10.82;;;7.30;;
28623;SDS011;15813;46.932;19.658;2023-06-10T04:22:48;18.45;;;7.53;;
28623;SDS011;15813;46.932;19.658;2023-06-10T04:25:14;14.93;;;6.53;;
28623;SDS011;15813;46.932;19.658;2023-06-10T04:27:39;10.27;;;5.97;;
28623;SDS011;15813;46.932;19.658;2023-06-10T04:30:04;12.80;;;6.25;;
28623;SDS011;15813;46.932;19.658;2023-06-10T04:32:30;10.55;;;6.38;;
28623;SDS011;15813;46.932;19.658;2023-06-10T04:34:55;9.18;;;5.75;;
28623;SDS011;15813;46.932;19.658;2023-06-10T04:37:21;9.20;;;6.50;;
28623;SDS011;15813;46.932;19.658;2023-06-10T04:39:46;13.93;;;6.40;;
28623;SDS011;15813;46.932;19.658;2023-06-10T04:42:11;11.98;;;6.25;;
28623;SDS011;15813;46.932;19.658;2023-06-10T04:44:37;9.77;;;6.30;;
28623;SDS011;15813;46.932;19.658;2023-06-10T04:47:02;8.82;;;5.50;;
28623;SDS011;15813;46.932;19.658;2023-06-10T04:49:27;30.08;;;10.15;;
28623;SDS011;15813;46.932;19.658;2023-06-10T04:51:54;9.63;;;7.03;;
28623;SDS011;15813;46.932;19.658;2023-06-10T04:54:20;12.85;;;6.97;;
28623;SDS011;15813;46.932;19.658;2023-06-10T04:56:45;9.20;;;6.63;;
28623;SDS011;15813;46.932;19.658;2023-06-10T04:59:10;12.70;;;6.38;;
28623;SDS011;15813;46.932;19.658;2023-06-10T05:01:35;18.77;;;7.80;;
28623;SDS011;15813;46.932;19.658;2023-06-10T05:04:01;13.53;;;7.70;;
28623;SDS011;15813;46.932;19.658;2023-06-10T05:06:26;18.58;;;7.95;;
28623;SDS011;15813;46.932;19.658;2023-06-10T05:08:51;14.88;;;7.53;;
28623;SDS011;15813;46.932;19.658;2023-06-10T05:11:16;15.30;;;8.33;;
28623;SDS011;15813;46.932;19.658;2023-06-10T05:13:42;12.50;;;8.18;;
28623;SDS011;15813;46.932;19.658;2023-06-10T05:16:09;14.40;;;7.93;;
28623;SDS011;15813;46.932;19.658;2023-06-10T05:18:34;18.90;;;8.15;;
28623;SDS011;15813;46.932;19.658;2023-06-10T05:21:00;11.25;;;6.95;;
28623;SDS011;15813;46.932;19.658;2023-06-10T05:23:25;11.90;;;7.78;;
28623;SDS011;15813;46.932;19.658;2023-06-10T05:25:51;8.80;;;6.30;;
28623;SDS011;15813;46.932;19.658;2023-06-10T05:28:16;10.88;;;7.50;;
28623;SDS011;15813;46.932;19.658;2023-06-10T05:30:41;8.50;;;6.47;;
28623;SDS011;15813;46.932;19.658;2023-06-10T05:33:07;8.47;;;6.50;;
28623;SDS011;15813;46.932;19.658;2023-06-10T05:35:32;8.43;;;6.13;;
28623;SDS011;15813;46.932;19.658;2023-06-10T05:37:57;12.70;;;6.90;;
28623;SDS011;15813;46.932;19.658;2023-06-10T05:40:22;11.07;;;6.45;;
28623;SDS011;15813;46.932;19.658;2023-06-10T05:42:48;7.60;;;6.68;;
28623;SDS011;15813;46.932;19.658;2023-06-10T05:45:13;10.00;;;6.18;;
28623;SDS011;15813;46.932;19.658;2023-06-10T05:47:39;9.93;;;7.18;;
28623;SDS011;15813;46.932;19.658;2023-06-10T05:50:05;9.88;;;7.53;;
28623;SDS011;15813;46.932;19.658;2023-06-10T05:54:59;9.23;;;7.10;;
28623;SDS011;15813;46.932;19.658;2023-06-10T05:57:25;9.85;;;7.18;;
28623;SDS011;15813;46.932;19.658;2023-06-10T05:59:50;12.98;;;6.57;;
28623;SDS011;15813;46.932;19.658;2023-06-10T06:02:15;12.05;;;7.20;;
28623;SDS011;15813;46.932;19.658;2023-06-10T06:04:40;9.02;;;5.72;;
28623;SDS011;15813;46.932;19.658;2023-06-10T06:07:06;9.37;;;6.53;;
28623;SDS011;15813;46.932;19.658;2023-06-10T06:09:31;8.88;;;6.13;;
28623;SDS011;15813;46.932;19.658;2023-06-10T06:11:56;7.38;;;6.15;;
28623;SDS011;15813;46.932;19.658;2023-06-10T06:14:22;8.25;;;6.55;;
28623;SDS011;15813;46.932;19.658;2023-06-10T06:16:47;8.70;;;5.75;;
28623;SDS011;15813;46.932;19.658;2023-06-10T06:19:12;7.83;;;5.90;;
28623;SDS011;15813;46.932;19.658;2023-06-10T06:21:37;5.95;;;4.85;;
28623;SDS011;15813;46.932;19.658;2023-06-10T06:24:03;5.47;;;3.83;;
28623;SDS011;15813;46.932;19.658;2023-06-10T06:26:28;8.13;;;5.00;;
28623;SDS011;15813;46.932;19.658;2023-06-10T06:28:53;8.13;;;5.27;;
28623;SDS011;15813;46.932;19.658;2023-06-10T06:31:19;10.00;;;5.90;;
28623;SDS011;15813;46.932;19.658;2023-06-10T06:33:44;7.65;;;5.45;;
28623;SDS011;15813;46.932;19.658;2023-06-10T06:36:09;12.35;;;5.70;;
28623;SDS011;15813;46.932;19.658;2023-06-10T06:38:35;9.10;;;5.82;;
28623;SDS011;15813;46.932;19.658;2023-06-10T06:41:00;7.30;;;5.73;;
28623;SDS011;15813;46.932;19.658;2023-06-10T06:43:28;9.10;;;5.90;;
28623;SDS011;15813;46.932;19.658;2023-06-10T06:45:53;7.35;;;5.53;;
28623;SDS011;15813;46.932;19.658;2023-06-10T06:48:18;8.50;;;5.63;;
28623;SDS011;15813;46.932;19.658;2023-06-10T06:50:44;7.18;;;5.97;;
28623;SDS011;15813;46.932;19.658;2023-06-10T06:53:09;8.07;;;5.43;;
28623;SDS011;15813;46.932;19.658;2023-06-10T06:55:34;7.10;;;5.53;;
28623;SDS011;15813;46.932;19.658;2023-06-10T06:58:00;5.75;;;5.13;;
28623;SDS011;15813;46.932;19.658;2023-06-10T07:00:27;8.65;;;5.60;;
28623;SDS011;15813;46.932;19.658;2023-06-10T07:02:53;9.43;;;6.60;;
28623;SDS011;15813;46.932;19.658;2023-06-10T07:05:18;7.63;;;5.97;;
28623;SDS011;15813;46.932;19.658;2023-06-10T07:07:43;10.38;;;7.00;;
28623;SDS011;15813;46.932;19.658;2023-06-10T07:10:09;9.13;;;6.57;;
28623;SDS011;15813;46.932;19.658;2023-06-10T07:12:34;8.85;;;6.68;;
28623;SDS011;15813;46.932;19.658;2023-06-10T07:14:59;8.43;;;7.03;;
28623;SDS011;15813;46.932;19.658;2023-06-10T07:17:25;9.75;;;7.53;;
28623;SDS011;15813;46.932;19.658;2023-06-10T07:19:51;11.30;;;8.40;;
28623;SDS011;15813;46.932;19.658;2023-06-10T07:22:17;10.47;;;8.00;;
28623;SDS011;15813;46.932;19.658;2023-06-10T07:24:42;9.10;;;7.75;;
28623;SDS011;15813;46.932;19.658;2023-06-10T07:27:08;9.05;;;6.43;;
28623;SDS011;15813;46.932;19.658;2023-06-10T07:29:33;8.35;;;7.05;;
28623;SDS011;15813;46.932;19.658;2023-06-10T07:32:00;7.72;;;6.70;;
28623;SDS011;15813;46.932;19.658;2023-06-10T07:34:26;9.13;;;7.00;;
28623;SDS011;15813;46.932;19.658;2023-06-10T07:36:51;7.20;;;6.37;;
28623;SDS011;15813;46.932;19.658;2023-06-10T07:39:16;7.18;;;6.47;;
28623;SDS011;15813;46.932;19.658;2023-06-10T07:41:41;8.47;;;7.47;;
28623;SDS011;15813;46.932;19.658;2023-06-10T07:44:07;7.97;;;6.70;;
28623;SDS011;15813;46.932;19.658;2023-06-10T07:46:32;9.00;;;6.80;;
28623;SDS011;15813;46.932;19.658;2023-06-10T07:48:57;16.40;;;7.43;;
28623;SDS011;15813;46.932;19.658;2023-06-10T07:51:23;6.28;;;5.50;;
28623;SDS011;15813;46.932;19.658;2023-06-10T07:53:48;9.15;;;6.43;;
28623;SDS011;15813;46.932;19.658;2023-06-10T07:56:13;8.20;;;6.38;;
28623;SDS011;15813;46.932;19.658;2023-06-10T07:58:39;6.57;;;5.13;;
28623;SDS011;15813;46.932;19.658;2023-06-10T08:01:04;8.98;;;5.93;;
28623;SDS011;15813;46.932;19.658;2023-06-10T08:03:30;8.60;;;6.10;;
28623;SDS011;15813;46.932;19.658;2023-06-10T08:05:55;11.03;;;5.10;;
28623;SDS011;15813;46.932;19.658;2023-06-10T08:08:20;7.40;;;5.07;;
28623;SDS011;15813;46.932;19.658;2023-06-10T08:10:45;5.20;;;4.60;;
28623;SDS011;15813;46.932;19.658;2023-06-10T08:13:11;6.67;;;5.33;;
28623;SDS011;15813;46.932;19.658;2023-06-10T08:15:36;6.83;;;4.80;;
28623;SDS011;15813;46.932;19.658;2023-06-10T08:18:01;5.07;;;4.57;;
28623;SDS011;15813;46.932;19.658;2023-06-10T08:20:26;6.93;;;4.33;;
28623;SDS011;15813;46.932;19.658;2023-06-10T08:22:52;4.18;;;3.47;;
28623;SDS011;15813;46.932;19.658;2023-06-10T08:25:17;5.82;;;4.47;;
28623;SDS011;15813;46.932;19.658;2023-06-10T08:27:42;6.13;;;5.15;;
28623;SDS011;15813;46.932;19.658;2023-06-10T08:30:08;7.33;;;6.13;;
28623;SDS011;15813;46.932;19.658;2023-06-10T08:32:35;7.13;;;5.55;;
28623;SDS011;15813;46.932;19.658;2023-06-10T08:35:00;6.80;;;6.10;;
28623;SDS011;15813;46.932;19.658;2023-06-10T08:37:27;9.07;;;6.18;;
28623;SDS011;15813;46.932;19.658;2023-06-10T08:39:52;6.33;;;5.67;;
28623;SDS011;15813;46.932;19.658;2023-06-10T08:42:33;7.83;;;6.53;;
28623;SDS011;15813;46.932;19.658;2023-06-10T08:45:00;7.25;;;6.38;;
28623;SDS011;15813;46.932;19.658;2023-06-10T08:47:26;6.38;;;5.35;;
28623;SDS011;15813;46.932;19.658;2023-06-10T08:49:54;7.50;;;5.47;;
28623;SDS011;15813;46.932;19.658;2023-06-10T08:52:21;5.90;;;4.47;;
28623;SDS011;15813;46.932;19.658;2023-06-10T08:54:59;5.65;;;5.05;;
28623;SDS011;15813;46.932;19.658;2023-06-10T08:57:27;7.55;;;6.05;;
28623;SDS011;15813;46.932;19.658;2023-06-10T08:59:53;7.18;;;6.10;;
28623;SDS011;15813;46.932;19.658;2023-06-10T09:02:20;6.07;;;5.43;;
28623;SDS011;15813;46.932;19.658;2023-06-10T09:04:46;7.07;;;4.63;;
28623;SDS011;15813;46.932;19.658;2023-06-10T09:07:11;4.28;;;3.88;;
28623;SDS011;15813;46.932;19.658;2023-06-10T09:09:37;5.10;;;4.60;;
28623;SDS011;15813;46.932;19.658;2023-06-10T09:12:03;4.00;;;3.60;;
28623;SDS011;15813;46.932;19.658;2023-06-10T09:14:28;4.47;;;3.88;;
28623;SDS011;15813;46.932;19.658;2023-06-10T09:16:54;3.35;;;3.03;;
28623;SDS011;15813;46.932;19.658;2023-06-10T09:19:22;4.27;;;3.87;;
28623;SDS011;15813;46.932;19.658;2023-06-10T09:21:48;4.20;;;3.65;;
28623;SDS011;15813;46.932;19.658;2023-06-10T09:24:13;4.43;;;3.30;;
28623;SDS011;15813;46.932;19.658;2023-06-10T09:26:39;4.60;;;3.53;;
28623;SDS011;15813;46.932;19.658;2023-06-10T09:29:05;4.53;;;3.40;;
28623;SDS011;15813;46.932;19.658;2023-06-10T09:31:31;3.60;;;3.30;;
28623;SDS011;15813;46.932;19.658;2023-06-10T09:34:09;5.22;;;3.40;;
28623;SDS011;15813;46.932;19.658;2023-06-10T09:36:35;5.45;;;3.20;;
28623;SDS011;15813;46.932;19.658;2023-06-10T09:39:00;5.88;;;3.67;;
28623;SDS011;15813;46.932;19.658;2023-06-10T09:41:35;3.83;;;3.40;;
28623;SDS011;15813;46.932;19.658;2023-06-10T09:44:01;3.80;;;3.47;;
28623;SDS011;15813;46.932;19.658;2023-06-10T09:46:30;6.88;;;3.65;;
28623;SDS011;15813;46.932;19.658;2023-06-10T09:48:57;6.07;;;3.97;;
28623;SDS011;15813;46.932;19.658;2023-06-10T09:51:22;5.10;;;4.00;;
28623;SDS011;15813;46.932;19.658;2023-06-10T09:53:48;4.65;;;3.88;;
28623;SDS011;15813;46.932;19.658;2023-06-10T09:56:15;6.88;;;4.18;;
28623;SDS011;15813;46.932;19.658;2023-06-10T09:58:40;4.68;;;3.95;;
28623;SDS011;15813;46.932;19.658;2023-06-10T10:01:08;4.37;;;3.73;;
28623;SDS011;15813;46.932;19.658;2023-06-10T10:03:42;4.57;;;3.90;;
28623;SDS011;15813;46.932;19.658;2023-06-10T10:06:07;4.57;;;3.67;;
28623;SDS011;15813;46.932;19.658;2023-06-10T10:08:33;8.75;;;4.18;;
28623;SDS011;15813;46.932;19.658;2023-06-10T10:10:59;8.40;;;4.17;;
28623;SDS011;15813;46.932;19.658;2023-06-10T10:13:24;7.50;;;4.43;;
28623;SDS011;15813;46.932;19.658;2023-06-10T10:15:50;5.20;;;4.10;;
28623;SDS011;15813;46.932;19.658;2023-06-10T10:18:16;6.30;;;4.40;;
28623;SDS011;15813;46.932;19.658;2023-06-10T10:20:46;6.38;;;4.43;;
28623;SDS011;15813;46.932;19.658;2023-06-10T10:23:11;6.60;;;4.68;;
28623;SDS011;15813;46.932;19.658;2023-06-10T10:25:40;8.25;;;4.32;;
28623;SDS011;15813;46.932;19.658;2023-06-10T10:28:10;7.60;;;5.43;;
28623;SDS011;15813;46.932;19.658;2023-06-10T10:30:42;5.85;;;4.85;;
28623;SDS011;15813;46.932;19.658;2023-06-10T10:33:17;13.40;;;5.20;;
28623;SDS011;15813;46.932;19.658;2023-06-10T10:35:43;10.93;;;5.32;;
28623;SDS011;15813;46.932;19.658;2023-06-10T10:38:10;6.50;;;4.57;;
28623;SDS011;15813;46.932;19.658;2023-06-10T10:40:36;8.05;;;5.75;;
28623;SDS011;15813;46.932;19.658;2023-06-10T10:43:01;8.18;;;5.75;;
28623;SDS011;15813;46.932;19.658;2023-06-10T10:45:28;7.47;;;5.97;;
28623;SDS011;15813;46.932;19.658;2023-06-10T10:47:54;9.45;;;6.85;;
28623;SDS011;15813;46.932;19.658;2023-06-10T10:50:21;9.50;;;6.80;;
28623;SDS011;15813;46.932;19.658;2023-06-10T10:55:24;8.57;;;7.68;;
28623;SDS011;15813;46.932;19.658;2023-06-10T11:00:26;8.13;;;6.82;;
28623;SDS011;15813;46.932;19.658;2023-06-10T11:02:52;9.13;;;7.40;;
28623;SDS011;15813;46.932;19.658;2023-06-10T11:05:19;12.07;;;7.25;;
28623;SDS011;15813;46.932;19.658;2023-06-10T11:07:55;7.35;;;6.50;;
28623;SDS011;15813;46.932;19.658;2023-06-10T11:10:31;10.80;;;7.32;;
28623;SDS011;15813;46.932;19.658;2023-06-10T11:12:56;22.45;;;6.97;;
28623;SDS011;15813;46.932;19.658;2023-06-10T11:15:26;8.95;;;6.35;;
28623;SDS011;15813;46.932;19.658;2023-06-10T11:18:14;8.07;;;6.82;;
28623;SDS011;15813;46.932;19.658;2023-06-10T11:23:08;10.32;;;7.60;;
28623;SDS011;15813;46.932;19.658;2023-06-10T11:25:40;10.30;;;6.83;;
28623;SDS011;15813;46.932;19.658;2023-06-10T11:28:27;7.57;;;6.20;;
28623;SDS011;15813;46.932;19.658;2023-06-10T11:30:56;9.60;;;8.38;;
28623;SDS011;15813;46.932;19.658;2023-06-10T11:33:22;10.77;;;8.65;;
28623;SDS011;15813;46.932;19.658;2023-06-10T11:35:47;11.73;;;9.45;;
28623;SDS011;15813;46.932;19.658;2023-06-10T11:38:13;11.38;;;9.52;;
28623;SDS011;15813;46.932;19.658;2023-06-10T11:40:38;12.90;;;9.93;;
28623;SDS011;15813;46.932;19.658;2023-06-10T11:43:03;17.20;;;9.65;;
28623;SDS011;15813;46.932;19.658;2023-06-10T11:45:29;14.82;;;10.27;;
28623;SDS011;15813;46.932;19.658;2023-06-10T11:47:58;11.60;;;9.27;;
28623;SDS011;15813;46.932;19.658;2023-06-10T11:50:33;11.32;;;9.45;;
28623;SDS011;15813;46.932;19.658;2023-06-10T11:52:58;10.38;;;9.27;;
28623;SDS011;15813;46.932;19.658;2023-06-10T11:55:25;9.88;;;8.80;;
28623;SDS011;15813;46.932;19.658;2023-06-10T11:57:50;9.43;;;8.43;;
28623;SDS011;15813;46.932;19.658;2023-06-10T12:00:22;10.70;;;8.73;;
28623;SDS011;15813;46.932;19.658;2023-06-10T12:02:54;10.07;;;8.82;;
28623;SDS011;15813;46.932;19.658;2023-06-10T12:05:20;10.93;;;8.27;;
28623;SDS011;15813;46.932;19.658;2023-06-10T12:07:45;10.75;;;8.40;;
28623;SDS011;15813;46.932;19.658;2023-06-10T12:10:11;9.03;;;7.10;;
28623;SDS011;15813;46.932;19.658;2023-06-10T12:12:36;8.47;;;6.10;;
28623;SDS011;15813;46.932;19.658;2023-06-10T12:15:06;7.35;;;6.13;;
28623;SDS011;15813;46.932;19.658;2023-06-10T12:20:02;7.10;;;5.68;;
28623;SDS011;15813;46.932;19.658;2023-06-10T12:22:38;6.32;;;4.90;;
28623;SDS011;15813;46.932;19.658;2023-06-10T12:25:04;6.57;;;4.88;;
28623;SDS011;15813;46.932;19.658;2023-06-10T12:27:31;5.30;;;4.25;;
28623;SDS011;15813;46.932;19.658;2023-06-10T12:29:58;6.10;;;4.30;;
28623;SDS011;15813;46.932;19.658;2023-06-10T12:32:39;9.00;;;4.10;;
28623;SDS011;15813;46.932;19.658;2023-06-10T12:35:05;5.13;;;4.53;;
28623;SDS011;15813;46.932;19.658;2023-06-10T12:37:30;4.40;;;3.67;;
28623;SDS011;15813;46.932;19.658;2023-06-10T12:39:59;4.97;;;3.80;;
28623;SDS011;15813;46.932;19.658;2023-06-10T12:42:25;4.18;;;3.78;;
28623;SDS011;15813;46.932;19.658;2023-06-10T12:44:52;4.47;;;3.80;;
28623;SDS011;15813;46.932;19.658;2023-06-10T12:47:18;3.73;;;3.13;;
28623;SDS011;15813;46.932;19.658;2023-06-10T12:49:43;6.37;;;3.80;;
28623;SDS011;15813;46.932;19.658;2023-06-10T12:52:08;4.10;;;3.50;;
28623;SDS011;15813;46.932;19.658;2023-06-10T12:54:34;6.17;;;3.73;;
28623;SDS011;15813;46.932;19.658;2023-06-10T12:56:59;5.15;;;3.38;;
28623;SDS011;15813;46.932;19.658;2023-06-10T12:59:24;3.85;;;3.20;;
28623;SDS011;15813;46.932;19.658;2023-06-10T13:01:53;5.93;;;3.17;;
28623;SDS011;15813;46.932;19.658;2023-06-10T13:04:19;4.60;;;3.63;;
28623;SDS011;15813;46.932;19.658;2023-06-10T13:06:44;3.20;;;2.90;;
28623;SDS011;15813;46.932;19.658;2023-06-10T13:09:12;4.18;;;3.45;;
28623;SDS011;15813;46.932;19.658;2023-06-10T13:11:37;3.50;;;2.95;;
28623;SDS011;15813;46.932;19.658;2023-06-10T13:14:03;4.40;;;2.60;;
28623;SDS011;15813;46.932;19.658;2023-06-10T13:16:29;4.38;;;2.88;;
28623;SDS011;15813;46.932;19.658;2023-06-10T13:18:54;3.88;;;3.08;;
28623;SDS011;15813;46.932;19.658;2023-06-10T13:21:19;3.23;;;2.93;;
28623;SDS011;15813;46.932;19.658;2023-06-10T13:23:46;3.75;;;2.90;;
28623;SDS011;15813;46.932;19.658;2023-06-10T13:26:13;2.75;;;2.53;;
28623;SDS011;15813;46.932;19.658;2023-06-10T13:28:38;3.20;;;2.90;;
28623;SDS011;15813;46.932;19.658;2023-06-10T13:31:04;3.70;;;2.63;;
28623;SDS011;15813;46.932;19.658;2023-06-10T13:33:29;3.80;;;3.10;;
28623;SDS011;15813;46.932;19.658;2023-06-10T13:35:54;5.37;;;3.13;;
28623;SDS011;15813;46.932;19.658;2023-06-10T13:38:19;5.28;;;2.70;;
28623;SDS011;15813;46.932;19.658;2023-06-10T13:40:45;2.73;;;2.43;;
28623;SDS011;15813;46.932;19.658;2023-06-10T13:43:10;3.87;;;2.67;;
28623;SDS011;15813;46.932;19.658;2023-06-10T13:45:36;4.07;;;2.58;;
28623;SDS011;15813;46.932;19.658;2023-06-10T13:48:01;3.92;;;2.75;;
28623;SDS011;15813;46.932;19.658;2023-06-10T13:50:29;3.08;;;2.55;;
28623;SDS011;15813;46.932;19.658;2023-06-10T13:52:54;7.15;;;3.55;;
28623;SDS011;15813;46.932;19.658;2023-06-10T13:55:19;7.33;;;4.40;;
28623;SDS011;15813;46.932;19.658;2023-06-10T13:57:45;5.10;;;3.60;;
28623;SDS011;15813;46.932;19.658;2023-06-10T14:00:11;4.67;;;3.63;;
28623;SDS011;15813;46.932;19.658;2023-06-10T14:02:36;5.13;;;4.10;;
28623;SDS011;15813;46.932;19.658;2023-06-10T14:05:02;6.32;;;4.03;;
28623;SDS011;15813;46.932;19.658;2023-06-10T14:07:27;4.97;;;4.32;;
28623;SDS011;15813;46.932;19.658;2023-06-10T14:09:53;8.02;;;4.57;;
28623;SDS011;15813;46.932;19.658;2023-06-10T14:12:18;6.75;;;3.47;;
28623;SDS011;15813;46.932;19.658;2023-06-10T14:14:43;4.22;;;3.83;;
28623;SDS011;15813;46.932;19.658;2023-06-10T14:17:09;6.10;;;3.97;;
28623;SDS011;15813;46.932;19.658;2023-06-10T14:19:34;6.00;;;4.60;;
28623;SDS011;15813;46.932;19.658;2023-06-10T14:21:59;4.35;;;3.83;;
28623;SDS011;15813;46.932;19.658;2023-06-10T14:24:25;5.33;;;4.33;;
28623;SDS011;15813;46.932;19.658;2023-06-10T14:26:50;6.07;;;3.70;;
28623;SDS011;15813;46.932;19.658;2023-06-10T14:29:15;5.20;;;3.78;;
28623;SDS011;15813;46.932;19.658;2023-06-10T14:31:42;5.13;;;4.25;;
28623;SDS011;15813;46.932;19.658;2023-06-10T14:34:07;5.37;;;3.60;;
28623;SDS011;15813;46.932;19.658;2023-06-10T14:36:33;4.80;;;3.92;;
28623;SDS011;15813;46.932;19.658;2023-06-10T14:38:58;4.78;;;3.80;;
28623;SDS011;15813;46.932;19.658;2023-06-10T14:41:23;6.10;;;3.73;;